createdAt,value
2022-10-05T00:01:32.414Z,99428.41
2022-10-05T00:04:15.512Z,99419.38
2022-10-05T00:06:52.047Z,99413.44
2022-10-05T00:09:23.252Z,99421.03
2022-10-05T00:11:53.265Z,99420.22
2022-10-05T00:14:32.375Z,99417.50
2022-10-05T00:17:03.184Z,99403.78
2022-10-05T00:19:36.557Z,99411.97
2022-10-05T00:22:15.140Z,99409.34
2022-10-05T00:24:44.431Z,99405.00
2022-10-05T00:27:20.131Z,99405.44
2022-10-05T00:29:51.964Z,99407.53
2022-10-05T00:32:20.817Z,99405.84
2022-10-05T00:34:49.664Z,99403.56
2022-10-05T00:37:19.994Z,99405.81
2022-10-05T00:39:50.826Z,99395.31
2022-10-05T00:42:44.296Z,99393.69
2022-10-05T00:45:20.261Z,99396.19
2022-10-05T00:48:08.216Z,99404.63
2022-10-05T00:51:08.620Z,99395.63
2022-10-05T00:53:47.661Z,99396.22
2022-10-05T00:56:41.861Z,99400.13
2022-10-05T00:59:26.188Z,99399.91
2022-10-05T01:02:04.295Z,99410.00
2022-10-05T01:04:44.401Z,99411.66
2022-10-05T01:07:26.781Z,99406.69
2022-10-05T01:10:07.625Z,99409.72
2022-10-05T01:12:50.342Z,99401.28
2022-10-05T01:15:29.725Z,99394.47
2022-10-05T01:18:14.247Z,99400.06
2022-10-05T01:20:58.835Z,99392.94
2022-10-05T01:24:25.142Z,99388.66
2022-10-05T01:27:20.230Z,99390.53
2022-10-05T01:30:00.508Z,99391.75
2022-10-05T01:32:38.684Z,99392.63
2022-10-05T01:35:22.589Z,99381.31
2022-10-05T01:38:14.115Z,99374.94
2022-10-05T01:40:59.820Z,99369.84
2022-10-05T01:43:38.255Z,99359.81
2022-10-05T01:46:26.437Z,99354.06
2022-10-05T01:49:18.528Z,99365.56
2022-10-05T01:52:44.797Z,99367.22
2022-10-05T01:55:26.791Z,99359.22
2022-10-05T01:58:10.762Z,99355.53
2022-10-05T02:00:51.766Z,99351.41
2022-10-05T02:03:29.514Z,99351.41
2022-10-05T02:06:06.357Z,99353.88
2022-10-05T02:08:45.056Z,99357.81
2022-10-05T02:11:15.997Z,99356.34
2022-10-05T02:13:51.659Z,99355.34
2022-10-05T02:16:28.553Z,99365.41
2022-10-05T02:19:04.642Z,99366.63
2022-10-05T02:21:37.757Z,99378.34
2022-10-05T02:24:13.606Z,99370.69
2022-10-05T02:26:43.410Z,99354.28
2022-10-05T02:29:15.842Z,99359.84
2022-10-05T02:31:52.010Z,99364.34
2022-10-05T02:34:40.764Z,99368.25
2022-10-05T02:37:36.797Z,99364.38
2022-10-05T02:40:23.252Z,99368.47
2022-10-05T02:43:06.498Z,99368.69
2022-10-05T02:45:46.238Z,99371.91
2022-10-05T02:48:31.713Z,99370.69
2022-10-05T02:51:16.465Z,99353.47
2022-10-05T02:54:07.152Z,99359.63
2022-10-05T02:56:49.503Z,99352.28
2022-10-05T02:59:31.312Z,99343.69
2022-10-05T03:02:16.305Z,99342.88
2022-10-05T03:04:59.227Z,99353.78
2022-10-05T03:07:38.937Z,99340.03
2022-10-05T03:10:16.071Z,99342.91
2022-10-05T03:13:01.818Z,99335.94
2022-10-05T03:15:59.986Z,99339.66
2022-10-05T03:18:53.663Z,99335.53
2022-10-05T03:21:43.190Z,99340.88
2022-10-05T03:24:35.840Z,99329.00
2022-10-05T03:27:18.899Z,99332.28
2022-10-05T03:30:00.354Z,99335.97
2022-10-05T03:32:46.833Z,99340.88
2022-10-05T03:35:28.352Z,99349.09
2022-10-05T03:38:13.974Z,99340.88
2022-10-05T03:40:51.798Z,99336.81
2022-10-05T03:43:44.140Z,99344.16
2022-10-05T03:46:26.138Z,99340.88
2022-10-05T03:49:10.854Z,99335.13
2022-10-05T03:51:46.657Z,99343.94
2022-10-05T03:54:24.857Z,99340.03
2022-10-05T03:57:10.979Z,99340.84
2022-10-05T03:59:50.881Z,99344.78
2022-10-05T04:02:28.225Z,99346.41
2022-10-05T04:05:07.023Z,99339.84
2022-10-05T04:07:46.814Z,99346.22
2022-10-05T04:10:52.219Z,99344.59
2022-10-05T04:13:36.807Z,99348.09
2022-10-05T04:16:14.604Z,99352.16
2022-10-05T04:18:51.982Z,99347.03
2022-10-05T04:21:26.532Z,99356.88
2022-10-05T04:24:03.391Z,99354.44
2022-10-05T04:26:43.110Z,99359.34
2022-10-05T04:29:31.307Z,99345.81
2022-10-05T04:32:31.559Z,99344.59
2022-10-05T04:35:39.811Z,99348.69
2022-10-05T04:38:46.592Z,99347.66
2022-10-05T04:41:52.752Z,99350.31
2022-10-05T04:45:31.841Z,99353.81
2022-10-05T04:48:40.407Z,99360.97
2022-10-05T04:51:35.941Z,99359.13
2022-10-05T04:54:24.541Z,99369.59
2022-10-05T04:56:59.777Z,99363.44
2022-10-05T05:00:04.757Z,99373.69
2022-10-05T05:02:58.347Z,99379.47
2022-10-05T05:06:05.142Z,99384.78
2022-10-05T05:09:03.742Z,99377.41
2022-10-05T05:11:47.641Z,99374.13
2022-10-05T05:14:56.855Z,99380.66
2022-10-05T05:17:48.390Z,99389.28
2022-10-05T05:20:27.133Z,99383.13
2022-10-05T05:23:11.890Z,99389.69
2022-10-05T05:25:57.474Z,99393.78
2022-10-05T05:28:37.479Z,99394.38
2022-10-05T05:31:23.962Z,99393.56
2022-10-05T05:34:10.077Z,99398.91
2022-10-05T05:37:00.010Z,99391.72
2022-10-05T05:39:38.625Z,99397.47
2022-10-05T05:42:35.614Z,99389.25
2022-10-05T05:45:18.541Z,99396.66
2022-10-05T05:47:55.234Z,99400.34
2022-10-05T05:50:44.384Z,99403.63
2022-10-05T05:53:22.633Z,99400.56
2022-10-05T05:56:00.840Z,99397.47
2022-10-05T05:58:37.042Z,99406.66
2022-10-05T06:01:31.770Z,99404.44
2022-10-05T06:04:13.288Z,99406.88
2022-10-05T06:06:49.432Z,99399.31
2022-10-05T06:09:28.149Z,99401.78
2022-10-05T06:12:29.386Z,99407.53
2022-10-05T06:15:05.264Z,99404.44
2022-10-05T06:17:43.669Z,99397.47
2022-10-05T06:20:25.550Z,99394.22
2022-10-05T06:22:59.069Z,99390.94
2022-10-05T06:25:43.378Z,99399.53
2022-10-05T06:28:16.280Z,99395.44
2022-10-05T06:31:02.139Z,99382.72
2022-10-05T06:33:49.352Z,99384.38
2022-10-05T06:36:41.649Z,99381.69
2022-10-05T06:39:51.921Z,99374.47
2022-10-05T06:43:07.899Z,99369.13
2022-10-05T06:45:59.400Z,99362.13
2022-10-05T06:49:19.564Z,99360.88
2022-10-05T06:52:10.058Z,99358.03
2022-10-05T06:55:04.404Z,99365.19
2022-10-05T06:57:55.793Z,99362.06
2022-10-05T07:00:29.025Z,99372.16
2022-10-05T07:03:11.726Z,99369.03
2022-10-05T07:06:05.260Z,99365.53
2022-10-05T07:08:55.146Z,99366.09
2022-10-05T07:11:42.298Z,99366.47
2022-10-05T07:14:27.421Z,99368.88
2022-10-05T07:17:24.532Z,99364.31
2022-10-05T07:20:09.641Z,99353.97
2022-10-05T07:23:21.417Z,99360.69
2022-10-05T07:26:06.116Z,99351.63
2022-10-05T07:28:49.929Z,99347.84
2022-10-05T07:31:33.467Z,99361.56
2022-10-05T07:34:11.377Z,99348.72
2022-10-05T07:37:07.567Z,99342.28
2022-10-05T07:40:01.914Z,99330.88
2022-10-05T07:42:53.238Z,99333.66
2022-10-05T07:45:31.308Z,99332.34
2022-10-05T07:48:16.871Z,99333.44
2022-10-05T07:51:00.924Z,99333.75
2022-10-05T07:53:38.243Z,99328.25
2022-10-05T07:56:18.569Z,99326.94
2022-10-05T07:58:58.615Z,99323.28
2022-10-05T08:01:33.156Z,99325.00
2022-10-05T08:04:15.703Z,99317.81
2022-10-05T08:06:51.932Z,99314.56
2022-10-05T08:09:40.336Z,99323.84
2022-10-05T08:12:32.439Z,99313.16
2022-10-05T08:15:14.949Z,99310.50
2022-10-05T08:17:54.362Z,99315.66
2022-10-05T08:20:43.744Z,99309.75
2022-10-05T08:23:23.697Z,99318.25
2022-10-05T08:26:13.968Z,99317.44
2022-10-05T08:28:53.320Z,99307.97
2022-10-05T08:31:28.044Z,99301.59
2022-10-05T08:34:07.362Z,99293.56
2022-10-05T08:36:56.424Z,99291.66
2022-10-05T08:39:31.760Z,99286.84
2022-10-05T08:42:58.970Z,99282.22
2022-10-05T08:46:25.654Z,99277.91
2022-10-05T08:49:24.391Z,99284.13
2022-10-05T08:52:26.555Z,99277.78
2022-10-05T08:55:46.912Z,99281.72
2022-10-05T08:59:15.054Z,99269.47
2022-10-05T09:02:14.742Z,99271.16
2022-10-05T09:05:31.147Z,99276.03
2022-10-05T09:08:45.727Z,99271.25
2022-10-05T09:11:21.898Z,99258.97
2022-10-05T09:14:30.986Z,99254.25
2022-10-05T09:17:28.378Z,99253.31
2022-10-05T09:20:32.339Z,99248.69
2022-10-05T09:23:15.297Z,99250.19
2022-10-05T09:25:58.884Z,99245.78
2022-10-05T09:28:36.620Z,99242.13
2022-10-05T09:31:45.323Z,99243.88
2022-10-05T09:34:50.442Z,99246.59
2022-10-05T09:38:10.360Z,99246.22
2022-10-05T09:41:31.608Z,99255.13
2022-10-05T09:44:42.302Z,99249.25
2022-10-05T09:48:01.358Z,99243.13
2022-10-05T09:51:06.043Z,99244.22
2022-10-05T09:54:25.964Z,99241.84
2022-10-05T09:57:42.438Z,99246.75
2022-10-05T10:00:41.222Z,99236.44
2022-10-05T10:03:57.992Z,99233.53
2022-10-05T10:06:55.722Z,99241.69
2022-10-05T10:09:42.473Z,99234.94
2022-10-05T10:12:47.119Z,99241.72
2022-10-05T10:15:59.037Z,99231.72
2022-10-05T10:19:24.867Z,99226.59
2022-10-05T10:22:43.332Z,99226.91
2022-10-05T10:26:17.429Z,99219.84
2022-10-05T10:29:28.913Z,99219.28
2022-10-05T10:32:37.933Z,99225.19
2022-10-05T10:35:24.037Z,99221.97
2022-10-05T10:38:31.583Z,99220.34
2022-10-05T10:41:42.410Z,99217.16
2022-10-05T10:45:08.488Z,99214.50
2022-10-05T10:47:53.530Z,99218.03
2022-10-05T10:51:16.161Z,99212.91
2022-10-05T10:54:36.282Z,99216.97
2022-10-05T10:57:11.334Z,99217.78
2022-10-05T11:00:28.539Z,99219.69
2022-10-05T11:03:39.028Z,99217.53
2022-10-05T11:06:59.856Z,99215.09
2022-10-05T11:10:04.450Z,99215.09
2022-10-05T11:13:17.059Z,99216.19
2022-10-05T11:16:44.113Z,99209.69
2022-10-05T11:20:03.627Z,99213.75
2022-10-05T11:23:00.087Z,99210.75
2022-10-05T11:26:18.375Z,99211.25
2022-10-05T11:29:27.297Z,99206.91
2022-10-05T11:32:37.020Z,99208.25
2022-10-05T11:35:34.812Z,99203.94
2022-10-05T11:38:37.946Z,99207.72
2022-10-05T11:42:00.440Z,99204.47
2022-10-05T11:45:26.025Z,99200.97
2022-10-05T11:48:42.248Z,99200.44
2022-10-05T11:51:35.582Z,99188.56
2022-10-05T11:55:05.906Z,99186.09
2022-10-05T11:57:38.940Z,99184.19
2022-10-05T12:00:19.481Z,99184.78
2022-10-05T12:04:15.480Z,99183.44
2022-10-05T12:07:13.962Z,99175.59
2022-10-05T12:10:19.798Z,99162.34
2022-10-05T12:13:20.085Z,99169.03
2022-10-05T12:15:58.844Z,99160.00
2022-10-05T12:18:52.098Z,99161.31
2022-10-05T12:21:33.662Z,99152.72
2022-10-05T12:24:14.328Z,99155.13
2022-10-05T12:26:52.077Z,99159.81
2022-10-05T12:29:32.414Z,99162.00
2022-10-05T12:32:09.055Z,99160.91
2022-10-05T12:34:59.017Z,99151.44
2022-10-05T12:37:47.825Z,99158.19
2022-10-05T12:40:29.191Z,99151.69
2022-10-05T12:43:07.644Z,99150.06
2022-10-05T12:46:00.742Z,99142.75
2022-10-05T12:49:14.374Z,99151.69
2022-10-05T12:51:53.076Z,99152.22
2022-10-05T12:54:37.309Z,99154.38
2022-10-05T12:57:20.264Z,99151.91
2022-10-05T12:59:57.317Z,99154.91
2022-10-05T13:02:39.192Z,99145.97
2022-10-05T13:05:23.848Z,99146.78
2022-10-05T13:08:14.030Z,99147.88
2022-10-05T13:10:49.971Z,99152.47
2022-10-05T13:13:39.517Z,99146.50
2022-10-05T13:16:29.972Z,99137.84
2022-10-05T13:19:35.834Z,99147.06
2022-10-05T13:22:38.599Z,99143.56
2022-10-05T13:25:30.184Z,99137.03
2022-10-05T13:28:17.472Z,99139.75
2022-10-05T13:31:00.347Z,99139.75
2022-10-05T13:33:52.185Z,99143.00
2022-10-05T13:36:31.457Z,99133.78
2022-10-05T13:39:14.359Z,99135.94
2022-10-05T13:41:56.908Z,99132.13
2022-10-05T13:44:36.641Z,99133.22
2022-10-05T13:47:16.862Z,99137.84
2022-10-05T13:49:54.950Z,99141.91
2022-10-05T13:52:47.935Z,99134.34
2022-10-05T13:55:41.847Z,99139.22
2022-10-05T13:58:24.330Z,99130.03
2022-10-05T14:00:57.143Z,99147.09
2022-10-05T14:03:31.368Z,99150.09
2022-10-05T14:06:03.766Z,99142.25
2022-10-05T14:08:36.809Z,99143.06
2022-10-05T14:11:31.327Z,99142.03
2022-10-05T14:14:16.245Z,99146.06
2022-10-05T14:16:54.893Z,99142.59
2022-10-05T14:19:29.194Z,99146.91
2022-10-05T14:22:03.962Z,99141.78
2022-10-05T14:24:44.302Z,99145.28
2022-10-05T14:27:25.628Z,99140.97
2022-10-05T14:29:59.870Z,99149.59
2022-10-05T14:32:33.994Z,99148.50
2022-10-05T14:35:16.384Z,99147.41
2022-10-05T14:37:52.488Z,99150.13
2022-10-05T14:40:33.160Z,99135.00
2022-10-05T14:43:21.624Z,99144.44
2022-10-05T14:45:59.541Z,99144.97
2022-10-05T14:48:38.745Z,99143.34
2022-10-05T14:51:12.915Z,99140.91
2022-10-05T14:53:47.199Z,99144.13
2022-10-05T14:56:42.511Z,99137.63
2022-10-05T15:00:05.762Z,99135.19
2022-10-05T15:03:27.795Z,99135.44
2022-10-05T15:06:03.939Z,99134.34
2022-10-05T15:09:17.322Z,99131.13
2022-10-05T15:11:54.648Z,99134.31
2022-10-05T15:14:30.145Z,99138.09
2022-10-05T15:17:06.089Z,99132.38
2022-10-05T15:19:54.010Z,99134.28
2022-10-05T15:22:33.205Z,99133.19
2022-10-05T15:25:16.297Z,99139.59
2022-10-05T15:28:09.879Z,99147.13
2022-10-05T15:30:48.532Z,99139.84
2022-10-05T15:33:31.416Z,99137.66
2022-10-05T15:36:11.198Z,99134.41
2022-10-05T15:39:00.235Z,99138.19
2022-10-05T15:41:49.822Z,99141.13
2022-10-05T15:44:36.484Z,99138.09
2022-10-05T15:47:11.159Z,99138.34
2022-10-05T15:49:57.553Z,99143.16
2022-10-05T15:52:37.380Z,99136.66
2022-10-05T15:55:35.345Z,99137.69
2022-10-05T15:58:44.167Z,99131.50
2022-10-05T16:01:25.858Z,99137.66
2022-10-05T16:04:06.991Z,99139.56
2022-10-05T16:07:08.122Z,99137.38
2022-10-05T16:09:52.433Z,99140.31
2022-10-05T16:12:47.959Z,99138.13
2022-10-05T16:15:28.670Z,99139.72
2022-10-05T16:18:38.089Z,99141.56
2022-10-05T16:21:20.736Z,99139.34
2022-10-05T16:24:07.157Z,99146.06
2022-10-05T16:26:57.610Z,99146.28
2022-10-05T16:29:47.833Z,99139.50
2022-10-05T16:32:23.179Z,99142.94
2022-10-05T16:35:14.873Z,99145.81
2022-10-05T16:38:00.441Z,99139.03
2022-10-05T16:40:45.729Z,99149.00
2022-10-05T16:43:36.107Z,99143.34
2022-10-05T16:46:22.295Z,99141.91
2022-10-05T16:49:04.704Z,99147.50
2022-10-05T16:51:51.499Z,99148.00
2022-10-05T16:54:26.544Z,99147.22
2022-10-05T16:57:10.631Z,99149.53
2022-10-05T17:00:21.143Z,99151.13
2022-10-05T17:03:33.280Z,99150.25
2022-10-05T17:07:01.242Z,99155.63
2022-10-05T17:10:03.813Z,99155.50
2022-10-05T17:12:58.227Z,99147.38
2022-10-05T17:16:04.622Z,99156.25
2022-10-05T17:19:18.004Z,99151.34
2022-10-05T17:22:01.086Z,99139.69
2022-10-05T17:24:57.544Z,99149.09
2022-10-05T17:27:55.125Z,99142.88
2022-10-05T17:30:54.001Z,99143.63
2022-10-05T17:33:32.255Z,99144.88
2022-10-05T17:36:22.159Z,99145.31
2022-10-05T17:38:54.319Z,99142.38
2022-10-05T17:41:28.583Z,99143.13
2022-10-05T17:44:28.458Z,99136.00
2022-10-05T17:47:05.147Z,99145.13
2022-10-05T17:50:20.405Z,99139.09
2022-10-05T17:53:39.456Z,99144.66
2022-10-05T17:56:09.266Z,99142.53
2022-10-05T17:59:06.825Z,99154.59
2022-10-05T18:01:40.247Z,99150.16
2022-10-05T18:04:40.469Z,99151.78
2022-10-05T18:07:25.158Z,99146.41
2022-10-05T18:10:20.220Z,99147.47
2022-10-05T18:12:52.453Z,99156.06
2022-10-05T18:15:49.299Z,99156.06
2022-10-05T18:19:16.802Z,99158.16
2022-10-05T18:22:27.905Z,99153.78
2022-10-05T18:25:09.887Z,99154.03
2022-10-05T18:28:15.306Z,99156.16
2022-10-05T18:31:11.267Z,99155.81
2022-10-05T18:34:27.629Z,99159.81
2022-10-05T18:37:17.754Z,99160.81
2022-10-05T18:40:28.350Z,99167.00
2022-10-05T18:43:18.101Z,99160.47
2022-10-05T18:46:12.569Z,99159.66
2022-10-05T18:48:58.144Z,99163.16
2022-10-05T18:51:41.305Z,99166.34
2022-10-05T18:54:32.494Z,99160.63
2022-10-05T18:57:36.637Z,99164.94
2022-10-05T19:00:17.224Z,99160.63
2022-10-05T19:03:22.437Z,99159.81
2022-10-05T19:06:13.123Z,99166.66
2022-10-05T19:08:56.780Z,99171.56
2022-10-05T19:11:41.070Z,99171.81
2022-10-05T19:14:31.472Z,99175.31
2022-10-05T19:17:24.455Z,99171.56
2022-10-05T19:20:23.822Z,99177.41
2022-10-05T19:23:34.648Z,99180.09
2022-10-05T19:26:16.613Z,99191.91
2022-10-05T19:29:03.049Z,99187.34
2022-10-05T19:31:42.080Z,99196.81
2022-10-05T19:34:34.571Z,99192.41
2022-10-05T19:37:23.215Z,99202.66
2022-10-05T19:40:22.487Z,99204.28
2022-10-05T19:43:35.348Z,99205.44
2022-10-05T19:46:34.732Z,99209.75
2022-10-05T19:49:03.901Z,99220.28
2022-10-05T19:51:38.043Z,99216.19
2022-10-05T19:54:25.042Z,99216.19
2022-10-05T20:11:22.936Z,99223.09
2022-10-05T20:14:20.848Z,99224.16
2022-10-05T20:17:37.605Z,99224.66
2022-10-05T20:20:38.374Z,99237.84
2022-10-05T20:23:25.033Z,99247.78
2022-10-05T20:26:11.734Z,99244.50
2022-10-05T20:28:41.974Z,99255.03
2022-10-05T20:31:10.729Z,99257.69
2022-10-05T20:33:44.140Z,99262.25
2022-10-05T20:36:18.659Z,99259.31
2022-10-05T20:38:47.589Z,99268.69
2022-10-05T20:41:16.747Z,99269.25
2022-10-05T20:43:47.287Z,99274.63
2022-10-05T20:46:17.831Z,99282.34
2022-10-05T20:48:46.478Z,99277.56
2022-10-05T20:51:18.065Z,99278.84
2022-10-05T20:53:47.203Z,99275.09
2022-10-05T20:56:16.238Z,99285.28
2022-10-05T20:58:46.272Z,99282.94
2022-10-05T21:01:19.980Z,99287.16
2022-10-05T21:03:48.897Z,99289.13
2022-10-05T21:06:28.262Z,99292.28
2022-10-05T21:08:57.238Z,99294.50
2022-10-05T21:11:26.903Z,99296.38
2022-10-05T21:13:57.918Z,99293.09
2022-10-05T21:16:29.766Z,99297.91
2022-10-05T21:18:58.812Z,99296.03
2022-10-05T21:21:28.461Z,99297.09
2022-10-05T21:23:57.217Z,99295.72
2022-10-05T21:26:31.223Z,99286.81
2022-10-05T21:30:38.377Z,99293.03
2022-10-05T21:33:08.443Z,99295.38
2022-10-05T21:36:02.834Z,99302.88
2022-10-05T21:38:31.617Z,99293.63
2022-10-05T21:41:03.597Z,99295.84
2022-10-05T21:43:32.378Z,99298.53
2022-10-05T21:46:01.470Z,99303.91
2022-10-05T21:48:33.934Z,99303.09
2022-10-05T21:51:03.892Z,99314.88
2022-10-05T21:53:36.927Z,99311.88
2022-10-05T21:56:13.851Z,99319.44
2022-10-05T21:58:46.535Z,99322.13
2022-10-05T22:01:18.822Z,99319.94
2022-10-05T22:03:51.969Z,99326.69
2022-10-05T22:06:21.281Z,99322.63
2022-10-05T22:08:50.731Z,99324.81
2022-10-05T22:11:19.992Z,99329.88
2022-10-05T22:13:51.332Z,99334.50
2022-10-05T22:16:23.541Z,99338.25
2022-10-05T22:18:53.785Z,99343.38
2022-10-05T22:21:22.629Z,99335.25
2022-10-05T22:23:51.705Z,99344.44
2022-10-05T22:26:24.143Z,99342.81
2022-10-05T22:28:55.703Z,99351.69
2022-10-05T22:31:24.829Z,99353.09
2022-10-05T22:33:55.132Z,99356.00
2022-10-05T22:36:24.191Z,99354.72
2022-10-05T22:38:53.140Z,99354.22
2022-10-05T22:41:21.911Z,99362.19
2022-10-05T22:43:51.375Z,99361.97
2022-10-05T22:46:20.574Z,99371.91
2022-10-05T22:48:49.439Z,99372.59
2022-10-05T22:51:19.762Z,99379.25
2022-10-05T22:53:48.490Z,99380.91
2022-10-05T22:56:17.651Z,99383.81
2022-10-05T22:58:47.033Z,99386.28
2022-10-05T23:01:18.901Z,99390.34
2022-10-05T23:03:48.414Z,99402.41
2022-10-05T23:06:21.646Z,99397.84
2022-10-05T23:08:54.237Z,99402.63
2022-10-05T23:11:26.071Z,99399.94
2022-10-05T23:13:57.042Z,99399.94
2022-10-05T23:16:29.797Z,99406.13
2022-10-05T23:18:59.215Z,99399.94
2022-10-05T23:21:31.634Z,99405.56
2022-10-05T23:24:00.322Z,99408.81
2022-10-05T23:26:29.117Z,99408.22
2022-10-05T23:28:57.961Z,99405.56
2022-10-05T23:31:30.767Z,99402.84
2022-10-05T23:33:59.614Z,99413.03
2022-10-05T23:36:32.452Z,99407.31
2022-10-05T23:39:31.197Z,99413.72
2022-10-05T23:42:00.781Z,99423.78
2022-10-05T23:44:29.671Z,99416.78
2022-10-05T23:46:58.357Z,99424.84
2022-10-05T23:49:27.021Z,99418.88
2022-10-05T23:51:57.113Z,99423.19
2022-10-05T23:54:25.830Z,99427.53
2022-10-05T23:56:54.497Z,99431.25
2022-10-05T23:59:23.222Z,99425.06
